sensor_id;sensor_type;location;lat;lon;timestamp;P1;durP1;ratioP1;P2;durP2;ratioP2
19179;SDS011;9722;48.754;8.868;2022-12-18T00:02:31;11.77;;;8.67;;
19179;SDS011;9722;48.754;8.868;2022-12-18T00:05:52;12.90;;;7.60;;
19179;SDS011;9722;48.754;8.868;2022-12-18T00:09:14;9.87;;;7.77;;
19179;SDS011;9722;48.754;8.868;2022-12-18T00:12:34;11.57;;;8.17;;
19179;SDS011;9722;48.754;8.868;2022-12-18T00:15:55;14.47;;;7.10;;
19179;SDS011;9722;48.754;8.868;2022-12-18T00:19:20;10.57;;;7.63;;
19179;SDS011;9722;48.754;8.868;2022-12-18T00:22:41;19.00;;;11.47;;
19179;SDS011;9722;48.754;8.868;2022-12-18T00:26:03;16.90;;;8.20;;
19179;SDS011;9722;48.754;8.868;2022-12-18T00:29:25;15.43;;;10.00;;
19179;SDS011;9722;48.754;8.868;2022-12-18T00:32:46;10.80;;;5.63;;
19179;SDS011;9722;48.754;8.868;2022-12-18T00:36:07;7.67;;;5.87;;
19179;SDS011;9722;48.754;8.868;2022-12-18T00:39:30;11.20;;;6.60;;
19179;SDS011;9722;48.754;8.868;2022-12-18T00:42:51;8.90;;;6.57;;
19179;SDS011;9722;48.754;8.868;2022-12-18T00:46:17;7.63;;;4.60;;
19179;SDS011;9722;48.754;8.868;2022-12-18T00:49:38;3.73;;;3.40;;
19179;SDS011;9722;48.754;8.868;2022-12-18T00:52:58;5.30;;;4.80;;
19179;SDS011;9722;48.754;8.868;2022-12-18T00:56:19;12.77;;;8.20;;
19179;SDS011;9722;48.754;8.868;2022-12-18T00:59:40;11.57;;;6.63;;
19179;SDS011;9722;48.754;8.868;2022-12-18T01:03:01;15.03;;;10.03;;
19179;SDS011;9722;48.754;8.868;2022-12-18T01:06:22;15.00;;;8.67;;
19179;SDS011;9722;48.754;8.868;2022-12-18T01:09:43;18.00;;;10.47;;
19179;SDS011;9722;48.754;8.868;2022-12-18T01:13:03;11.57;;;8.53;;
19179;SDS011;9722;48.754;8.868;2022-12-18T01:16:24;12.73;;;8.50;;
19179;SDS011;9722;48.754;8.868;2022-12-18T01:19:44;12.63;;;6.10;;
19179;SDS011;9722;48.754;8.868;2022-12-18T01:23:05;8.13;;;6.40;;
19179;SDS011;9722;48.754;8.868;2022-12-18T01:26:26;15.20;;;7.50;;
19179;SDS011;9722;48.754;8.868;2022-12-18T01:29:49;16.10;;;8.73;;
19179;SDS011;9722;48.754;8.868;2022-12-18T01:33:10;12.67;;;6.70;;
19179;SDS011;9722;48.754;8.868;2022-12-18T01:36:31;12.67;;;9.80;;
19179;SDS011;9722;48.754;8.868;2022-12-18T01:39:54;12.17;;;8.33;;
19179;SDS011;9722;48.754;8.868;2022-12-18T01:43:14;15.40;;;8.57;;
19179;SDS011;9722;48.754;8.868;2022-12-18T01:46:35;6.67;;;5.93;;
19179;SDS011;9722;48.754;8.868;2022-12-18T01:49:56;16.93;;;9.00;;
19179;SDS011;9722;48.754;8.868;2022-12-18T01:53:20;13.00;;;8.93;;
19179;SDS011;9722;48.754;8.868;2022-12-18T01:56:42;10.03;;;8.30;;
19179;SDS011;9722;48.754;8.868;2022-12-18T02:00:05;7.83;;;6.33;;
19179;SDS011;9722;48.754;8.868;2022-12-18T02:03:33;11.33;;;7.40;;
19179;SDS011;9722;48.754;8.868;2022-12-18T02:07:08;12.23;;;9.23;;
19179;SDS011;9722;48.754;8.868;2022-12-18T02:10:45;12.10;;;7.10;;
19179;SDS011;9722;48.754;8.868;2022-12-18T02:18:03;10.90;;;7.13;;
19179;SDS011;9722;48.754;8.868;2022-12-18T02:21:50;18.63;;;9.93;;
19179;SDS011;9722;48.754;8.868;2022-12-18T02:25:30;14.90;;;8.40;;
19179;SDS011;9722;48.754;8.868;2022-12-18T02:29:15;16.53;;;9.87;;
19179;SDS011;9722;48.754;8.868;2022-12-18T02:32:43;11.30;;;7.83;;
19179;SDS011;9722;48.754;8.868;2022-12-18T02:36:07;15.90;;;10.10;;
19179;SDS011;9722;48.754;8.868;2022-12-18T02:39:30;12.17;;;8.50;;
19179;SDS011;9722;48.754;8.868;2022-12-18T02:42:53;15.27;;;9.33;;
19179;SDS011;9722;48.754;8.868;2022-12-18T02:53:22;10.37;;;7.67;;
19179;SDS011;9722;48.754;8.868;2022-12-18T02:56:50;12.33;;;8.17;;
19179;SDS011;9722;48.754;8.868;2022-12-18T03:00:16;9.63;;;7.23;;
19179;SDS011;9722;48.754;8.868;2022-12-18T03:03:42;17.33;;;7.83;;
19179;SDS011;9722;48.754;8.868;2022-12-18T03:07:58;13.03;;;7.40;;
19179;SDS011;9722;48.754;8.868;2022-12-18T03:11:16;17.43;;;9.93;;
19179;SDS011;9722;48.754;8.868;2022-12-18T03:22:08;12.10;;;8.50;;
19179;SDS011;9722;48.754;8.868;2022-12-18T03:25:30;10.20;;;7.33;;
19179;SDS011;9722;48.754;8.868;2022-12-18T03:28:53;12.87;;;9.03;;
19179;SDS011;9722;48.754;8.868;2022-12-18T03:32:23;16.50;;;10.33;;
19179;SDS011;9722;48.754;8.868;2022-12-18T03:35:48;9.97;;;7.97;;
19179;SDS011;9722;48.754;8.868;2022-12-18T03:39:10;15.93;;;10.23;;
19179;SDS011;9722;48.754;8.868;2022-12-18T03:46:17;11.63;;;9.03;;
19179;SDS011;9722;48.754;8.868;2022-12-18T03:53:18;14.83;;;8.53;;
19179;SDS011;9722;48.754;8.868;2022-12-18T03:57:06;8.60;;;6.37;;
19179;SDS011;9722;48.754;8.868;2022-12-18T04:00:39;17.50;;;9.43;;
19179;SDS011;9722;48.754;8.868;2022-12-18T04:04:01;13.27;;;8.63;;
19179;SDS011;9722;48.754;8.868;2022-12-18T04:07:23;7.50;;;5.93;;
19179;SDS011;9722;48.754;8.868;2022-12-18T04:10:44;11.40;;;8.03;;
19179;SDS011;9722;48.754;8.868;2022-12-18T04:14:05;16.33;;;10.53;;
19179;SDS011;9722;48.754;8.868;2022-12-18T04:17:25;20.00;;;9.67;;
19179;SDS011;9722;48.754;8.868;2022-12-18T04:20:46;16.53;;;8.77;;
19179;SDS011;9722;48.754;8.868;2022-12-18T04:24:06;14.27;;;9.53;;
19179;SDS011;9722;48.754;8.868;2022-12-18T04:27:27;13.97;;;9.50;;
19179;SDS011;9722;48.754;8.868;2022-12-18T04:30:47;18.30;;;9.77;;
19179;SDS011;9722;48.754;8.868;2022-12-18T04:34:08;14.77;;;9.73;;
19179;SDS011;9722;48.754;8.868;2022-12-18T04:37:29;11.33;;;7.97;;
19179;SDS011;9722;48.754;8.868;2022-12-18T04:40:50;10.07;;;7.00;;
19179;SDS011;9722;48.754;8.868;2022-12-18T04:44:10;10.93;;;8.57;;
19179;SDS011;9722;48.754;8.868;2022-12-18T04:47:31;12.03;;;8.17;;
19179;SDS011;9722;48.754;8.868;2022-12-18T04:50:51;9.00;;;6.87;;
19179;SDS011;9722;48.754;8.868;2022-12-18T04:54:12;12.77;;;7.93;;
19179;SDS011;9722;48.754;8.868;2022-12-18T04:57:32;13.33;;;8.57;;
19179;SDS011;9722;48.754;8.868;2022-12-18T05:00:53;16.60;;;10.00;;
19179;SDS011;9722;48.754;8.868;2022-12-18T05:04:14;5.97;;;5.10;;
19179;SDS011;9722;48.754;8.868;2022-12-18T05:07:34;10.97;;;8.20;;
19179;SDS011;9722;48.754;8.868;2022-12-18T05:10:58;12.97;;;7.67;;
19179;SDS011;9722;48.754;8.868;2022-12-18T05:14:20;12.97;;;8.43;;
19179;SDS011;9722;48.754;8.868;2022-12-18T05:17:40;12.03;;;7.67;;
19179;SDS011;9722;48.754;8.868;2022-12-18T05:21:01;13.17;;;7.23;;
19179;SDS011;9722;48.754;8.868;2022-12-18T05:24:22;16.27;;;8.37;;
19179;SDS011;9722;48.754;8.868;2022-12-18T05:27:42;14.83;;;8.67;;
19179;SDS011;9722;48.754;8.868;2022-12-18T05:31:03;14.23;;;8.87;;
19179;SDS011;9722;48.754;8.868;2022-12-18T05:34:24;13.27;;;8.93;;
19179;SDS011;9722;48.754;8.868;2022-12-18T05:37:45;17.13;;;9.23;;
19179;SDS011;9722;48.754;8.868;2022-12-18T05:41:05;13.50;;;9.40;;
19179;SDS011;9722;48.754;8.868;2022-12-18T05:44:26;15.27;;;9.83;;
19179;SDS011;9722;48.754;8.868;2022-12-18T05:47:47;14.90;;;8.27;;
19179;SDS011;9722;48.754;8.868;2022-12-18T05:51:12;19.37;;;9.73;;
19179;SDS011;9722;48.754;8.868;2022-12-18T05:54:34;15.70;;;9.40;;
19179;SDS011;9722;48.754;8.868;2022-12-18T05:57:55;19.77;;;10.53;;
19179;SDS011;9722;48.754;8.868;2022-12-18T06:01:16;17.77;;;9.87;;
19179;SDS011;9722;48.754;8.868;2022-12-18T06:04:39;14.73;;;9.97;;
19179;SDS011;9722;48.754;8.868;2022-12-18T06:08:00;19.47;;;10.87;;
19179;SDS011;9722;48.754;8.868;2022-12-18T06:11:25;21.20;;;10.03;;
19179;SDS011;9722;48.754;8.868;2022-12-18T06:14:46;20.10;;;10.30;;
19179;SDS011;9722;48.754;8.868;2022-12-18T06:18:07;20.10;;;9.87;;
19179;SDS011;9722;48.754;8.868;2022-12-18T06:21:28;22.37;;;11.00;;
19179;SDS011;9722;48.754;8.868;2022-12-18T06:24:49;21.53;;;11.00;;
19179;SDS011;9722;48.754;8.868;2022-12-18T06:28:09;22.13;;;11.93;;
19179;SDS011;9722;48.754;8.868;2022-12-18T06:31:30;12.07;;;7.17;;
19179;SDS011;9722;48.754;8.868;2022-12-18T06:34:51;16.63;;;9.17;;
19179;SDS011;9722;48.754;8.868;2022-12-18T06:38:11;10.77;;;8.60;;
19179;SDS011;9722;48.754;8.868;2022-12-18T06:41:32;20.90;;;10.67;;
19179;SDS011;9722;48.754;8.868;2022-12-18T06:44:52;16.03;;;9.87;;
19179;SDS011;9722;48.754;8.868;2022-12-18T06:48:13;21.17;;;11.93;;
19179;SDS011;9722;48.754;8.868;2022-12-18T06:51:34;11.57;;;7.13;;
19179;SDS011;9722;48.754;8.868;2022-12-18T06:54:54;21.50;;;11.73;;
19179;SDS011;9722;48.754;8.868;2022-12-18T06:58:15;17.23;;;9.50;;
19179;SDS011;9722;48.754;8.868;2022-12-18T07:01:36;27.53;;;11.93;;
19179;SDS011;9722;48.754;8.868;2022-12-18T07:04:56;25.47;;;12.17;;
19179;SDS011;9722;48.754;8.868;2022-12-18T07:08:17;18.13;;;10.63;;
19179;SDS011;9722;48.754;8.868;2022-12-18T07:11:37;18.40;;;10.90;;
19179;SDS011;9722;48.754;8.868;2022-12-18T07:14:58;16.67;;;10.30;;
19179;SDS011;9722;48.754;8.868;2022-12-18T07:18:18;18.50;;;11.33;;
19179;SDS011;9722;48.754;8.868;2022-12-18T07:21:39;16.97;;;10.27;;
19179;SDS011;9722;48.754;8.868;2022-12-18T07:24:59;16.40;;;10.00;;
19179;SDS011;9722;48.754;8.868;2022-12-18T07:28:20;21.77;;;10.00;;
19179;SDS011;9722;48.754;8.868;2022-12-18T07:31:40;18.67;;;11.07;;
19179;SDS011;9722;48.754;8.868;2022-12-18T07:35:01;24.50;;;11.43;;
19179;SDS011;9722;48.754;8.868;2022-12-18T07:38:21;24.03;;;12.30;;
19179;SDS011;9722;48.754;8.868;2022-12-18T07:41:42;19.47;;;10.60;;
19179;SDS011;9722;48.754;8.868;2022-12-18T07:45:05;20.80;;;11.50;;
19179;SDS011;9722;48.754;8.868;2022-12-18T07:48:27;20.10;;;11.60;;
19179;SDS011;9722;48.754;8.868;2022-12-18T07:51:48;22.97;;;12.90;;
19179;SDS011;9722;48.754;8.868;2022-12-18T07:55:09;15.53;;;10.77;;
19179;SDS011;9722;48.754;8.868;2022-12-18T07:58:29;20.37;;;10.77;;
19179;SDS011;9722;48.754;8.868;2022-12-18T08:01:50;17.80;;;11.70;;
19179;SDS011;9722;48.754;8.868;2022-12-18T08:05:11;21.43;;;12.23;;
19179;SDS011;9722;48.754;8.868;2022-12-18T08:08:32;16.53;;;11.67;;
19179;SDS011;9722;48.754;8.868;2022-12-18T08:11:53;17.63;;;11.57;;
19179;SDS011;9722;48.754;8.868;2022-12-18T08:15:14;21.20;;;11.53;;
19179;SDS011;9722;48.754;8.868;2022-12-18T08:18:35;22.43;;;12.03;;
19179;SDS011;9722;48.754;8.868;2022-12-18T08:21:56;47.53;;;18.57;;
19179;SDS011;9722;48.754;8.868;2022-12-18T08:25:17;19.67;;;12.40;;
19179;SDS011;9722;48.754;8.868;2022-12-18T08:28:38;19.93;;;12.13;;
19179;SDS011;9722;48.754;8.868;2022-12-18T08:31:59;19.90;;;11.97;;
19179;SDS011;9722;48.754;8.868;2022-12-18T08:35:19;20.03;;;12.87;;
19179;SDS011;9722;48.754;8.868;2022-12-18T08:38:40;24.10;;;13.57;;
19179;SDS011;9722;48.754;8.868;2022-12-18T08:42:00;24.30;;;12.43;;
19179;SDS011;9722;48.754;8.868;2022-12-18T08:45:39;21.70;;;13.87;;
19179;SDS011;9722;48.754;8.868;2022-12-18T08:49:00;21.80;;;12.90;;
19179;SDS011;9722;48.754;8.868;2022-12-18T08:52:20;18.93;;;12.63;;
19179;SDS011;9722;48.754;8.868;2022-12-18T08:55:41;21.97;;;11.43;;
19179;SDS011;9722;48.754;8.868;2022-12-18T08:59:01;21.40;;;12.80;;
19179;SDS011;9722;48.754;8.868;2022-12-18T09:02:22;20.77;;;12.60;;
19179;SDS011;9722;48.754;8.868;2022-12-18T09:05:43;25.83;;;13.83;;
19179;SDS011;9722;48.754;8.868;2022-12-18T09:09:05;26.63;;;15.63;;
19179;SDS011;9722;48.754;8.868;2022-12-18T09:12:26;25.60;;;14.60;;
19179;SDS011;9722;48.754;8.868;2022-12-18T09:15:47;22.57;;;12.67;;
19179;SDS011;9722;48.754;8.868;2022-12-18T09:19:10;26.70;;;14.60;;
19179;SDS011;9722;48.754;8.868;2022-12-18T09:22:30;22.10;;;13.90;;
19179;SDS011;9722;48.754;8.868;2022-12-18T09:25:51;20.80;;;13.67;;
19179;SDS011;9722;48.754;8.868;2022-12-18T09:29:11;25.60;;;14.53;;
19179;SDS011;9722;48.754;8.868;2022-12-18T09:32:32;22.83;;;14.07;;
19179;SDS011;9722;48.754;8.868;2022-12-18T09:35:52;20.53;;;13.93;;
19179;SDS011;9722;48.754;8.868;2022-12-18T09:39:13;25.20;;;14.77;;
19179;SDS011;9722;48.754;8.868;2022-12-18T09:42:34;21.93;;;14.77;;
19179;SDS011;9722;48.754;8.868;2022-12-18T09:45:56;17.93;;;13.23;;
19179;SDS011;9722;48.754;8.868;2022-12-18T09:49:21;19.10;;;13.43;;
19179;SDS011;9722;48.754;8.868;2022-12-18T09:52:47;15.43;;;11.70;;
19179;SDS011;9722;48.754;8.868;2022-12-18T09:56:14;20.80;;;13.63;;
19179;SDS011;9722;48.754;8.868;2022-12-18T09:59:38;19.43;;;13.23;;
19179;SDS011;9722;48.754;8.868;2022-12-18T10:03:01;20.37;;;14.90;;
19179;SDS011;9722;48.754;8.868;2022-12-18T10:06:39;18.20;;;14.43;;
19179;SDS011;9722;48.754;8.868;2022-12-18T10:10:07;22.47;;;14.23;;
19179;SDS011;9722;48.754;8.868;2022-12-18T10:13:37;19.87;;;13.67;;
19179;SDS011;9722;48.754;8.868;2022-12-18T10:20:54;20.90;;;14.73;;
19179;SDS011;9722;48.754;8.868;2022-12-18T10:24:23;18.40;;;13.40;;
19179;SDS011;9722;48.754;8.868;2022-12-18T10:27:57;16.50;;;14.63;;
19179;SDS011;9722;48.754;8.868;2022-12-18T10:31:24;18.23;;;13.90;;
19179;SDS011;9722;48.754;8.868;2022-12-18T10:34:45;22.10;;;14.53;;
19179;SDS011;9722;48.754;8.868;2022-12-18T10:41:36;17.43;;;13.00;;
19179;SDS011;9722;48.754;8.868;2022-12-18T10:45:01;20.00;;;14.07;;
19179;SDS011;9722;48.754;8.868;2022-12-18T10:48:55;20.87;;;15.07;;
19179;SDS011;9722;48.754;8.868;2022-12-18T10:52:22;22.60;;;14.40;;
19179;SDS011;9722;48.754;8.868;2022-12-18T10:55:45;17.90;;;13.83;;
19179;SDS011;9722;48.754;8.868;2022-12-18T10:59:07;20.47;;;15.93;;
19179;SDS011;9722;48.754;8.868;2022-12-18T11:02:34;17.60;;;14.17;;
19179;SDS011;9722;48.754;8.868;2022-12-18T11:06:07;18.20;;;14.57;;
19179;SDS011;9722;48.754;8.868;2022-12-18T11:09:36;20.70;;;15.77;;
19179;SDS011;9722;48.754;8.868;2022-12-18T11:13:17;20.17;;;15.40;;
19179;SDS011;9722;48.754;8.868;2022-12-18T11:16:44;22.77;;;15.93;;
19179;SDS011;9722;48.754;8.868;2022-12-18T11:20:19;20.43;;;15.10;;
19179;SDS011;9722;48.754;8.868;2022-12-18T11:23:46;20.20;;;15.97;;
19179;SDS011;9722;48.754;8.868;2022-12-18T11:27:16;28.63;;;18.00;;
19179;SDS011;9722;48.754;8.868;2022-12-18T11:30:38;23.57;;;16.80;;
19179;SDS011;9722;48.754;8.868;2022-12-18T11:34:16;25.10;;;17.13;;
19179;SDS011;9722;48.754;8.868;2022-12-18T11:37:54;23.17;;;16.70;;
19179;SDS011;9722;48.754;8.868;2022-12-18T11:41:21;20.97;;;16.47;;
19179;SDS011;9722;48.754;8.868;2022-12-18T11:48:34;22.43;;;16.37;;
19179;SDS011;9722;48.754;8.868;2022-12-18T11:52:07;23.77;;;17.03;;
19179;SDS011;9722;48.754;8.868;2022-12-18T11:59:04;22.10;;;16.93;;
19179;SDS011;9722;48.754;8.868;2022-12-18T12:02:42;27.10;;;17.90;;
19179;SDS011;9722;48.754;8.868;2022-12-18T12:06:40;25.83;;;18.67;;
19179;SDS011;9722;48.754;8.868;2022-12-18T12:14:15;23.30;;;16.70;;
19179;SDS011;9722;48.754;8.868;2022-12-18T12:21:39;25.60;;;16.80;;
19179;SDS011;9722;48.754;8.868;2022-12-18T12:28:31;25.27;;;17.70;;
19179;SDS011;9722;48.754;8.868;2022-12-18T12:39:13;27.57;;;17.87;;
19179;SDS011;9722;48.754;8.868;2022-12-18T12:46:50;25.27;;;15.33;;
19179;SDS011;9722;48.754;8.868;2022-12-18T12:50:16;27.27;;;16.13;;
19179;SDS011;9722;48.754;8.868;2022-12-18T12:53:39;27.73;;;17.40;;
19179;SDS011;9722;48.754;8.868;2022-12-18T13:00:43;25.77;;;18.07;;
19179;SDS011;9722;48.754;8.868;2022-12-18T13:08:05;27.30;;;17.60;;
19179;SDS011;9722;48.754;8.868;2022-12-18T13:11:32;25.63;;;16.50;;
19179;SDS011;9722;48.754;8.868;2022-12-18T13:15:21;27.97;;;17.60;;
19179;SDS011;9722;48.754;8.868;2022-12-18T13:18:52;29.53;;;17.53;;
19179;SDS011;9722;48.754;8.868;2022-12-18T13:22:24;26.13;;;17.07;;
19179;SDS011;9722;48.754;8.868;2022-12-18T13:26:31;29.67;;;17.80;;
19179;SDS011;9722;48.754;8.868;2022-12-18T13:29:40;27.47;;;17.00;;
19179;SDS011;9722;48.754;8.868;2022-12-18T13:36:39;27.07;;;16.47;;
19179;SDS011;9722;48.754;8.868;2022-12-18T13:40:00;29.87;;;17.60;;
19179;SDS011;9722;48.754;8.868;2022-12-18T13:46:47;28.80;;;16.00;;
19179;SDS011;9722;48.754;8.868;2022-12-18T13:50:12;26.60;;;15.73;;
19179;SDS011;9722;48.754;8.868;2022-12-18T13:53:43;27.30;;;16.83;;
19179;SDS011;9722;48.754;8.868;2022-12-18T13:57:30;26.10;;;16.50;;
19179;SDS011;9722;48.754;8.868;2022-12-18T14:00:51;25.23;;;15.43;;
19179;SDS011;9722;48.754;8.868;2022-12-18T14:04:16;26.40;;;16.07;;
19179;SDS011;9722;48.754;8.868;2022-12-18T14:07:39;31.03;;;16.90;;
19179;SDS011;9722;48.754;8.868;2022-12-18T14:11:01;27.63;;;16.57;;
19179;SDS011;9722;48.754;8.868;2022-12-18T14:14:23;27.67;;;15.80;;
19179;SDS011;9722;48.754;8.868;2022-12-18T14:17:44;27.23;;;17.50;;
19179;SDS011;9722;48.754;8.868;2022-12-18T14:21:05;31.17;;;17.90;;
19179;SDS011;9722;48.754;8.868;2022-12-18T14:24:26;40.60;;;17.20;;
19179;SDS011;9722;48.754;8.868;2022-12-18T14:27:50;29.33;;;16.83;;
19179;SDS011;9722;48.754;8.868;2022-12-18T14:31:33;35.00;;;19.47;;
19179;SDS011;9722;48.754;8.868;2022-12-18T14:34:54;38.83;;;19.27;;
19179;SDS011;9722;48.754;8.868;2022-12-18T14:41:49;33.70;;;17.10;;
19179;SDS011;9722;48.754;8.868;2022-12-18T14:48:52;31.57;;;16.00;;
19179;SDS011;9722;48.754;8.868;2022-12-18T14:52:31;28.37;;;15.90;;
19179;SDS011;9722;48.754;8.868;2022-12-18T14:55:52;30.93;;;15.87;;
19179;SDS011;9722;48.754;8.868;2022-12-18T15:02:36;33.70;;;18.03;;
19179;SDS011;9722;48.754;8.868;2022-12-18T15:05:58;28.90;;;15.03;;
19179;SDS011;9722;48.754;8.868;2022-12-18T15:09:36;27.43;;;14.70;;
19179;SDS011;9722;48.754;8.868;2022-12-18T15:16:22;23.83;;;14.67;;
19179;SDS011;9722;48.754;8.868;2022-12-18T15:19:43;23.97;;;14.17;;
19179;SDS011;9722;48.754;8.868;2022-12-18T15:23:12;26.23;;;14.80;;
19179;SDS011;9722;48.754;8.868;2022-12-18T15:26:51;22.93;;;12.60;;
19179;SDS011;9722;48.754;8.868;2022-12-18T15:33:38;35.10;;;17.37;;
19179;SDS011;9722;48.754;8.868;2022-12-18T15:37:06;26.10;;;14.63;;
19179;SDS011;9722;48.754;8.868;2022-12-18T15:40:27;29.93;;;15.30;;
19179;SDS011;9722;48.754;8.868;2022-12-18T15:43:49;25.97;;;15.07;;
19179;SDS011;9722;48.754;8.868;2022-12-18T15:47:11;26.90;;;14.97;;
19179;SDS011;9722;48.754;8.868;2022-12-18T15:50:32;28.40;;;14.57;;
19179;SDS011;9722;48.754;8.868;2022-12-18T15:53:54;27.10;;;14.27;;
19179;SDS011;9722;48.754;8.868;2022-12-18T15:57:16;28.70;;;16.07;;
19179;SDS011;9722;48.754;8.868;2022-12-18T16:00:43;25.40;;;15.33;;
19179;SDS011;9722;48.754;8.868;2022-12-18T16:04:03;29.17;;;16.23;;
19179;SDS011;9722;48.754;8.868;2022-12-18T16:07:24;36.30;;;17.23;;
19179;SDS011;9722;48.754;8.868;2022-12-18T16:10:44;40.47;;;19.97;;
19179;SDS011;9722;48.754;8.868;2022-12-18T16:14:06;29.67;;;17.83;;
19179;SDS011;9722;48.754;8.868;2022-12-18T16:17:38;29.53;;;16.53;;
19179;SDS011;9722;48.754;8.868;2022-12-18T16:21:02;25.27;;;13.93;;
19179;SDS011;9722;48.754;8.868;2022-12-18T16:24:24;28.83;;;15.90;;
19179;SDS011;9722;48.754;8.868;2022-12-18T16:27:49;28.70;;;16.13;;
19179;SDS011;9722;48.754;8.868;2022-12-18T16:31:10;28.20;;;16.70;;
19179;SDS011;9722;48.754;8.868;2022-12-18T16:34:32;29.30;;;17.43;;
19179;SDS011;9722;48.754;8.868;2022-12-18T16:37:54;33.73;;;16.33;;
19179;SDS011;9722;48.754;8.868;2022-12-18T16:41:18;35.73;;;17.97;;
19179;SDS011;9722;48.754;8.868;2022-12-18T16:44:51;32.97;;;15.53;;
19179;SDS011;9722;48.754;8.868;2022-12-18T16:48:11;19.47;;;13.33;;
19179;SDS011;9722;48.754;8.868;2022-12-18T16:51:32;27.03;;;15.63;;
19179;SDS011;9722;48.754;8.868;2022-12-18T16:54:52;26.03;;;14.80;;
19179;SDS011;9722;48.754;8.868;2022-12-18T16:58:13;36.27;;;17.23;;
19179;SDS011;9722;48.754;8.868;2022-12-18T17:01:34;33.00;;;15.10;;
19179;SDS011;9722;48.754;8.868;2022-12-18T17:04:55;41.43;;;19.27;;
19179;SDS011;9722;48.754;8.868;2022-12-18T17:08:16;35.27;;;18.63;;
19179;SDS011;9722;48.754;8.868;2022-12-18T17:11:37;25.70;;;16.23;;
19179;SDS011;9722;48.754;8.868;2022-12-18T17:14:58;22.50;;;14.43;;
19179;SDS011;9722;48.754;8.868;2022-12-18T17:18:18;25.60;;;15.37;;
19179;SDS011;9722;48.754;8.868;2022-12-18T17:21:40;18.63;;;11.97;;
19179;SDS011;9722;48.754;8.868;2022-12-18T17:25:00;27.93;;;16.17;;
19179;SDS011;9722;48.754;8.868;2022-12-18T17:28:21;28.53;;;15.10;;
19179;SDS011;9722;48.754;8.868;2022-12-18T17:31:43;25.17;;;14.77;;
19179;SDS011;9722;48.754;8.868;2022-12-18T17:35:03;25.60;;;13.87;;
19179;SDS011;9722;48.754;8.868;2022-12-18T17:38:24;31.27;;;16.90;;
19179;SDS011;9722;48.754;8.868;2022-12-18T17:41:45;26.87;;;16.23;;
19179;SDS011;9722;48.754;8.868;2022-12-18T17:45:06;25.87;;;15.63;;
19179;SDS011;9722;48.754;8.868;2022-12-18T17:48:28;29.13;;;16.67;;
19179;SDS011;9722;48.754;8.868;2022-12-18T17:51:48;38.10;;;21.00;;
19179;SDS011;9722;48.754;8.868;2022-12-18T17:55:10;24.70;;;14.73;;
19179;SDS011;9722;48.754;8.868;2022-12-18T17:58:31;17.10;;;10.60;;
19179;SDS011;9722;48.754;8.868;2022-12-18T18:01:53;31.03;;;16.70;;
19179;SDS011;9722;48.754;8.868;2022-12-18T18:05:13;36.00;;;22.17;;
19179;SDS011;9722;48.754;8.868;2022-12-18T18:08:34;29.30;;;17.53;;
19179;SDS011;9722;48.754;8.868;2022-12-18T18:11:55;28.30;;;14.57;;
19179;SDS011;9722;48.754;8.868;2022-12-18T18:15:34;18.23;;;12.40;;
19179;SDS011;9722;48.754;8.868;2022-12-18T18:18:58;25.87;;;15.93;;
19179;SDS011;9722;48.754;8.868;2022-12-18T18:22:20;27.97;;;15.50;;
19179;SDS011;9722;48.754;8.868;2022-12-18T18:25:41;29.57;;;18.10;;
19179;SDS011;9722;48.754;8.868;2022-12-18T18:29:02;46.67;;;23.10;;
19179;SDS011;9722;48.754;8.868;2022-12-18T18:32:24;27.73;;;14.77;;
19179;SDS011;9722;48.754;8.868;2022-12-18T18:35:45;29.77;;;15.33;;
19179;SDS011;9722;48.754;8.868;2022-12-18T18:39:05;22.77;;;13.37;;
19179;SDS011;9722;48.754;8.868;2022-12-18T18:42:26;32.07;;;16.10;;
19179;SDS011;9722;48.754;8.868;2022-12-18T18:45:46;41.07;;;19.90;;
19179;SDS011;9722;48.754;8.868;2022-12-18T18:49:07;30.97;;;16.77;;
19179;SDS011;9722;48.754;8.868;2022-12-18T18:52:28;30.17;;;17.60;;
19179;SDS011;9722;48.754;8.868;2022-12-18T18:55:48;33.87;;;20.10;;
19179;SDS011;9722;48.754;8.868;2022-12-18T18:59:09;25.30;;;15.00;;
19179;SDS011;9722;48.754;8.868;2022-12-18T19:02:30;34.37;;;17.17;;
19179;SDS011;9722;48.754;8.868;2022-12-18T19:05:51;35.90;;;17.17;;
19179;SDS011;9722;48.754;8.868;2022-12-18T19:09:13;21.00;;;13.97;;
19179;SDS011;9722;48.754;8.868;2022-12-18T19:12:37;26.80;;;15.80;;
19179;SDS011;9722;48.754;8.868;2022-12-18T19:16:16;30.37;;;15.37;;
19179;SDS011;9722;48.754;8.868;2022-12-18T19:19:37;21.87;;;12.33;;
19179;SDS011;9722;48.754;8.868;2022-12-18T19:22:58;27.23;;;15.47;;
19179;SDS011;9722;48.754;8.868;2022-12-18T19:26:18;28.87;;;18.27;;
19179;SDS011;9722;48.754;8.868;2022-12-18T19:29:40;28.23;;;16.53;;
19179;SDS011;9722;48.754;8.868;2022-12-18T19:33:00;32.03;;;18.60;;
19179;SDS011;9722;48.754;8.868;2022-12-18T19:36:22;37.37;;;19.43;;
19179;SDS011;9722;48.754;8.868;2022-12-18T19:39:45;36.23;;;19.33;;
19179;SDS011;9722;48.754;8.868;2022-12-18T19:43:06;28.83;;;17.93;;
19179;SDS011;9722;48.754;8.868;2022-12-18T19:46:26;33.73;;;19.23;;
19179;SDS011;9722;48.754;8.868;2022-12-18T19:49:50;38.93;;;19.57;;
19179;SDS011;9722;48.754;8.868;2022-12-18T19:53:10;33.63;;;17.47;;
19179;SDS011;9722;48.754;8.868;2022-12-18T19:56:32;30.00;;;17.80;;
19179;SDS011;9722;48.754;8.868;2022-12-18T19:59:53;34.20;;;17.40;;
19179;SDS011;9722;48.754;8.868;2022-12-18T20:03:14;32.10;;;18.73;;
19179;SDS011;9722;48.754;8.868;2022-12-18T20:06:36;31.30;;;16.53;;
19179;SDS011;9722;48.754;8.868;2022-12-18T20:10:07;39.47;;;20.20;;
19179;SDS011;9722;48.754;8.868;2022-12-18T20:13:32;33.17;;;17.67;;
19179;SDS011;9722;48.754;8.868;2022-12-18T20:16:53;30.00;;;16.30;;
19179;SDS011;9722;48.754;8.868;2022-12-18T20:20:13;28.83;;;17.53;;
19179;SDS011;9722;48.754;8.868;2022-12-18T20:23:34;29.03;;;16.17;;
19179;SDS011;9722;48.754;8.868;2022-12-18T20:26:54;30.30;;;18.33;;
19179;SDS011;9722;48.754;8.868;2022-12-18T20:30:15;30.73;;;16.50;;
19179;SDS011;9722;48.754;8.868;2022-12-18T20:33:36;30.43;;;17.57;;
19179;SDS011;9722;48.754;8.868;2022-12-18T20:36:56;30.97;;;15.67;;
19179;SDS011;9722;48.754;8.868;2022-12-18T20:40:17;31.70;;;17.10;;
19179;SDS011;9722;48.754;8.868;2022-12-18T20:43:38;38.80;;;19.13;;
19179;SDS011;9722;48.754;8.868;2022-12-18T20:46:58;32.33;;;17.70;;
19179;SDS011;9722;48.754;8.868;2022-12-18T20:50:21;34.13;;;18.80;;
19179;SDS011;9722;48.754;8.868;2022-12-18T20:53:42;31.30;;;18.27;;
19179;SDS011;9722;48.754;8.868;2022-12-18T20:57:03;32.80;;;18.30;;
19179;SDS011;9722;48.754;8.868;2022-12-18T21:00:24;31.87;;;18.73;;
19179;SDS011;9722;48.754;8.868;2022-12-18T21:03:45;30.53;;;17.93;;
19179;SDS011;9722;48.754;8.868;2022-12-18T21:07:06;36.53;;;18.20;;
19179;SDS011;9722;48.754;8.868;2022-12-18T21:10:26;35.87;;;18.20;;
19179;SDS011;9722;48.754;8.868;2022-12-18T21:13:47;32.33;;;17.30;;
19179;SDS011;9722;48.754;8.868;2022-12-18T21:17:07;31.30;;;17.20;;
19179;SDS011;9722;48.754;8.868;2022-12-18T21:20:28;28.53;;;16.23;;
19179;SDS011;9722;48.754;8.868;2022-12-18T21:23:49;25.43;;;16.47;;
19179;SDS011;9722;48.754;8.868;2022-12-18T21:27:10;33.93;;;16.80;;
19179;SDS011;9722;48.754;8.868;2022-12-18T21:30:30;27.03;;;16.10;;
19179;SDS011;9722;48.754;8.868;2022-12-18T21:33:51;29.97;;;16.57;;
19179;SDS011;9722;48.754;8.868;2022-12-18T21:37:12;30.20;;;17.53;;
19179;SDS011;9722;48.754;8.868;2022-12-18T21:40:32;30.07;;;17.13;;
19179;SDS011;9722;48.754;8.868;2022-12-18T21:43:52;30.67;;;16.93;;
19179;SDS011;9722;48.754;8.868;2022-12-18T21:47:25;29.00;;;16.00;;
19179;SDS011;9722;48.754;8.868;2022-12-18T21:50:45;33.73;;;18.43;;